Weather at San Diego International Airport

Public forecast

Using degrees Fahrenheit for public forecast. Weather courtesy of forecast.io.

Current aviation weather report (METAR) for San Diego International Airport

Retrieved 2021/07/29 03:51 UTC (35 minutes ago):

KSAN 290351Z 31005KT 10SM FEW008 SCT250 22/18 A2998 RMK AO2 SLP153 T02170178

Aviation forecast (TAF) for San Diego International Airport

Retrieved 2021-07-29 00:28 UTC (4 hours ago):

TAF KSAN 282326Z 2900/3006 29009KT P6SM FEW010 SCT250 FM290300 31005KT P6SM SCT010 FM291100 VRB03KT P6SM BKN009 FM291500 VRB04KT P6SM BKN010 FM291700 29007KT P6SM SCT012 FM292000 29010KT P6SM SKC FM300300 VRB04KT P6SM FEW010